Pagrindinis puslapis
METAR-TAF:

METAR-TAF

Oro uostai :

Trat, Tailandas

platuma: 12-16-28N, ilguma: 102-19-08E, Aukštis: 32 m

Dabartinis oras

Ataskaita buvo paskelbta 39 minutes, ne 07:00 UTC
Vėjas 15 kt iš Šiaurės Rytų
Temperatūra 35°C
Drėgmė 34%
Slėgis 1013 hPa
Matomumas: 7000 m

METAR: VTBO 230700Z 04015KT 7000 NSC 35/17 Q1013

Laikas: 14:39 (07:39 UTC)

Prognozė

Ataskaita buvo paskelbta 2 valandos ir 39 minutes, ne 05:00 UTC
Prognozė galioja nuo 23 metu 06 UTC su 24 metu 06 UTC
Vėjas 10 kt iš Šiaurės Rytų
Matomumas: 8000 m
Tapsmas
nuo 23 metu 22 UTC su 23 metu 24 UTC
Vėjas 5 kt iš Šiaurės
Matomumas: 3000 m
rūkana
Tapsmas
nuo 24 metu 02 UTC su 24 metu 04 UTC
Vėjas 10 kt iš Rytų/Šiaurės Rytų
Matomumas: 7000 m

TAF: VTBO 230500Z 2306/2406 05010KT 8000 NSC BECMG 2322/2324 35005KT 3000 BR BECMG 2402/2404 06010KT 7000 NSW

Orai ataskaitas ir orų prognozės (METAR, TAF).

turimą stotys yra geltonos ir raudonos taškus žemėlapyje.

Perkelti pele per norėdami pamatyti stoties vardą.

Tada spustelėkite, norėdami matyti oro stebėjimo ir prognozės.

Norėdami pakeisti žemėlapį: spustelėkite ant žalios mygtukų su juodo kryžiaus žemyn,; žalią mygtuką su brūkšneliu, jei norite nutolinti; arba žalių rodyklių gretimoms žemėlapius.


METAR-TAF: